Kinghorn, United Kingdom
Current Conditions -  °F | °C
As of 10:20 PM on Tuesday 21 Oct 2014 (Local Time) from EGPH Reporting Station
Clear Clear  
Wind Chill: 39°   Ceiling: Unl
Heat Index: 45°   Visibility: 6mi
Dew Point: 36°   Wind: 10mph
Humidity: 71%   Direction: 250°WSW
Pressure: 29.91"   Gusts: NA
Location:  56.07°N, 3.18°W
Report Text: EGPH 212120Z 25009KT 220V280 CAVOK 07/02 Q1013
Loading
Personal Weather Stations






























Interactive Weather Map
Tropical Storm Tracking
New forecast layout! Learn more

10-Day Weather Forecast

Advertisements
Track Severe Weather on mobile